createdAt,value
2018-05-16T00:02:19.034Z,16.40
2018-05-16T00:04:47.449Z,16.41
2018-05-16T00:07:15.825Z,16.50
2018-05-16T00:09:44.981Z,16.52
2018-05-16T00:12:13.361Z,16.49
2018-05-16T00:14:41.749Z,16.64
2018-05-16T00:17:10.122Z,16.73
2018-05-16T00:19:38.572Z,16.55
2018-05-16T00:22:06.959Z,16.56
2018-05-16T00:24:35.345Z,16.54
2018-05-16T00:27:03.723Z,16.48
2018-05-16T00:29:32.090Z,16.45
2018-05-16T00:32:01.233Z,16.42
2018-05-16T00:34:29.613Z,16.40
2018-05-16T00:36:58.190Z,16.49
2018-05-16T00:39:26.582Z,16.59
2018-05-16T00:41:54.966Z,16.59
2018-05-16T00:44:23.317Z,16.48
2018-05-16T00:49:16.184Z,16.32
2018-05-16T00:51:45.336Z,16.32
2018-05-16T00:54:13.821Z,16.27
2018-05-16T00:56:42.217Z,16.23
2018-05-16T00:59:10.637Z,16.14
2018-05-16T01:01:39.793Z,16.15
2018-05-16T01:04:08.376Z,16.11
2018-05-16T01:06:36.879Z,16.06
2018-05-16T01:09:05.976Z,16.12
2018-05-16T01:11:34.364Z,16.11
2018-05-16T01:14:02.921Z,16.11
2018-05-16T01:16:31.317Z,16.07
2018-05-16T01:18:59.718Z,16.28
2018-05-16T01:21:28.881Z,16.43
2018-05-16T01:23:57.262Z,16.65
2018-05-16T01:26:25.739Z,16.72
2018-05-16T01:28:54.174Z,16.91
2018-05-16T01:31:22.549Z,17.10
2018-05-16T01:33:50.954Z,17.02
2018-05-16T01:36:20.162Z,16.87
2018-05-16T01:38:49.357Z,16.81
2018-05-16T01:41:18.505Z,16.87
2018-05-16T01:43:46.909Z,16.76
2018-05-16T01:46:15.285Z,16.77
2018-05-16T01:48:43.665Z,16.83
2018-05-16T01:51:12.058Z,16.91
2018-05-16T01:53:40.446Z,16.94
2018-05-16T01:56:08.833Z,16.91
2018-05-16T01:58:37.205Z,16.52
2018-05-16T02:01:05.621Z,16.12
2018-05-16T02:03:34.767Z,15.90
2018-05-16T02:06:03.158Z,15.45
2018-05-16T02:08:31.533Z,15.34
2018-05-16T02:10:59.939Z,15.06
2018-05-16T02:13:28.320Z,15.04
2018-05-16T02:15:56.893Z,14.92
2018-05-16T02:18:25.301Z,14.82
2018-05-16T02:20:53.683Z,14.66
2018-05-16T02:23:22.074Z,14.62
2018-05-16T02:25:50.615Z,14.55
2018-05-16T02:28:19.082Z,14.67
2018-05-16T02:30:48.242Z,14.80
2018-05-16T02:33:16.628Z,14.65
2018-05-16T02:35:45.031Z,14.63
2018-05-16T02:38:13.389Z,14.63
2018-05-16T02:40:41.774Z,14.50
2018-05-16T02:43:10.145Z,14.51
2018-05-16T02:45:38.530Z,14.32
2018-05-16T02:48:06.966Z,14.35
2018-05-16T02:50:35.362Z,14.37
2018-05-16T02:53:03.725Z,14.22
2018-05-16T02:55:32.874Z,14.16
2018-05-16T02:58:01.231Z,14.13
2018-05-16T03:00:29.649Z,14.12
2018-05-16T03:02:58.036Z,14.14
2018-05-16T03:05:26.430Z,14.09
2018-05-16T03:07:54.822Z,14.05
2018-05-16T03:10:23.252Z,14.06
2018-05-16T03:12:51.629Z,14.22
2018-05-16T03:15:20.003Z,14.33
2018-05-16T03:17:48.504Z,14.34
2018-05-16T03:20:16.881Z,14.42
2018-05-16T03:22:45.298Z,14.34
2018-05-16T03:25:13.813Z,14.36
2018-05-16T03:27:42.198Z,14.28
2018-05-16T03:30:10.576Z,14.26
2018-05-16T03:32:38.950Z,14.31
2018-05-16T03:35:07.362Z,14.21
2018-05-16T03:37:36.701Z,14.08
2018-05-16T03:40:05.121Z,14.04
2018-05-16T03:42:33.506Z,14.06
2018-05-16T03:45:01.925Z,14.05
2018-05-16T03:47:31.086Z,14.10
2018-05-16T03:49:59.481Z,14.13
2018-05-16T03:52:28.630Z,14.19
2018-05-16T03:54:57.111Z,14.20
2018-05-16T03:57:43.301Z,14.22
2018-05-16T04:00:29.796Z,14.13
2018-05-16T04:03:15.905Z,14.07
2018-05-16T04:05:44.505Z,14.02
2018-05-16T04:08:12.991Z,13.99
2018-05-16T04:10:41.384Z,13.90
2018-05-16T04:13:09.771Z,13.83
2018-05-16T04:15:39.060Z,13.70
2018-05-16T04:18:07.435Z,13.59
2018-05-16T04:20:35.831Z,13.50
2018-05-16T04:23:04.202Z,13.46
2018-05-16T04:25:32.870Z,13.43
2018-05-16T04:28:01.279Z,13.47
2018-05-16T04:30:29.675Z,13.53
2018-05-16T04:32:58.097Z,13.69
2018-05-16T04:35:26.656Z,13.72
2018-05-16T04:37:55.046Z,13.76
2018-05-16T04:40:23.557Z,13.75
2018-05-16T04:42:51.942Z,13.73
2018-05-16T04:45:20.321Z,13.74
2018-05-16T04:47:49.457Z,13.73
2018-05-16T04:50:17.841Z,13.71
2018-05-16T04:52:46.272Z,13.69
2018-05-16T04:55:14.610Z,13.66
2018-05-16T04:57:43.175Z,13.66
2018-05-16T05:00:11.555Z,13.69
2018-05-16T05:02:39.946Z,13.74
2018-05-16T05:05:08.333Z,13.82
2018-05-16T05:07:36.726Z,13.89
2018-05-16T05:10:05.118Z,13.91
2018-05-16T05:12:33.532Z,14.00
2018-05-16T05:15:01.894Z,14.07
2018-05-16T05:17:30.398Z,14.10
2018-05-16T05:19:59.681Z,14.17
2018-05-16T05:22:27.937Z,14.23
2018-05-16T05:24:56.414Z,14.39
2018-05-16T05:27:24.812Z,14.45
2018-05-16T05:29:53.371Z,14.50
2018-05-16T05:32:21.778Z,14.58
2018-05-16T05:34:50.394Z,14.62
2018-05-16T05:37:18.777Z,14.79
2018-05-16T05:39:47.221Z,14.82
2018-05-16T05:42:15.597Z,15.02
2018-05-16T05:44:44.017Z,15.15
2018-05-16T05:47:12.397Z,15.48
2018-05-16T05:49:40.866Z,15.61
2018-05-16T05:52:09.555Z,15.65
2018-05-16T05:54:37.934Z,15.66
2018-05-16T05:57:06.362Z,15.77
2018-05-16T05:59:34.897Z,16.04
2018-05-16T06:02:03.591Z,16.21
2018-05-16T06:04:31.988Z,16.03
2018-05-16T06:07:00.381Z,16.02
2018-05-16T06:09:28.794Z,16.22
2018-05-16T06:11:57.449Z,16.37
2018-05-16T06:14:25.861Z,16.65
2018-05-16T06:16:54.501Z,16.66
2018-05-16T06:19:23.021Z,16.75
2018-05-16T06:21:51.406Z,16.98
2018-05-16T06:24:19.803Z,16.96
2018-05-16T06:26:48.175Z,17.13
2018-05-16T06:29:16.626Z,17.32
2018-05-16T06:31:45.006Z,17.36
2018-05-16T06:34:13.448Z,17.58
2018-05-16T06:36:41.830Z,17.58
2018-05-16T06:39:10.436Z,17.91
2018-05-16T06:41:38.801Z,18.33
2018-05-16T06:44:07.186Z,18.72
2018-05-16T06:46:35.762Z,18.80
2018-05-16T06:49:04.147Z,19.63
2018-05-16T06:51:32.533Z,20.10
2018-05-16T06:54:00.925Z,20.98
2018-05-16T06:56:30.113Z,21.64
2018-05-16T06:58:58.502Z,22.35
2018-05-16T07:01:26.886Z,22.67
2018-05-16T07:03:55.489Z,24.23
2018-05-16T07:06:23.810Z,24.87
2018-05-16T07:08:52.208Z,24.77
2018-05-16T07:11:20.614Z,24.39
2018-05-16T07:13:49.153Z,23.88
2018-05-16T07:16:17.550Z,24.07
2018-05-16T07:18:45.927Z,26.14
2018-05-16T07:21:14.307Z,26.51
2018-05-16T07:23:42.683Z,26.25
2018-05-16T07:26:11.077Z,24.29
2018-05-16T07:28:39.478Z,25.61
2018-05-16T07:31:07.831Z,25.95
2018-05-16T07:33:36.238Z,26.66
2018-05-16T07:36:04.613Z,26.39
2018-05-16T07:38:33.000Z,26.75
2018-05-16T07:41:01.484Z,26.14
2018-05-16T07:43:29.782Z,25.61
2018-05-16T07:45:58.218Z,27.10
2018-05-16T07:48:27.445Z,28.25
2018-05-16T07:50:55.821Z,27.69
2018-05-16T07:53:24.191Z,27.61
2018-05-16T07:55:52.682Z,27.45
2018-05-16T07:58:21.049Z,27.70
2018-05-16T08:00:50.190Z,27.68
2018-05-16T08:03:18.643Z,26.09
2018-05-16T08:05:47.015Z,26.53
2018-05-16T08:08:16.189Z,27.34
2018-05-16T08:10:46.081Z,27.09
2018-05-16T08:13:14.458Z,26.38
2018-05-16T08:15:42.808Z,27.23
2018-05-16T08:18:11.982Z,26.25
2018-05-16T08:20:40.369Z,26.66
2018-05-16T08:23:08.780Z,25.93
2018-05-16T08:25:37.942Z,24.66
2018-05-16T08:28:07.225Z,24.95
2018-05-16T08:30:35.711Z,25.72
2018-05-16T08:33:04.088Z,25.92
2018-05-16T08:35:32.474Z,25.97
2018-05-16T08:38:00.850Z,25.82
2018-05-16T08:40:29.269Z,24.91
2018-05-16T08:42:58.645Z,26.33
2018-05-16T08:45:26.933Z,27.03
2018-05-16T08:47:55.332Z,26.29
2018-05-16T08:50:25.326Z,26.20
2018-05-16T08:52:53.710Z,25.39
2018-05-16T08:55:22.122Z,24.30
2018-05-16T08:57:50.483Z,23.97
2018-05-16T09:00:18.877Z,24.99
2018-05-16T09:02:47.246Z,25.36
2018-05-16T09:05:15.645Z,25.52
2018-05-16T09:07:44.040Z,25.70
2018-05-16T09:10:13.196Z,25.09
2018-05-16T09:12:41.681Z,25.84
2018-05-16T09:15:10.065Z,27.25
2018-05-16T09:17:38.585Z,28.07
2018-05-16T09:20:06.955Z,27.31
2018-05-16T09:22:35.614Z,27.40
2018-05-16T09:25:04.031Z,27.57
2018-05-16T09:27:32.398Z,25.71
2018-05-16T09:30:00.769Z,25.37
2018-05-16T09:32:29.209Z,24.21
2018-05-16T09:34:58.354Z,23.57
2018-05-16T09:37:26.831Z,23.70
2018-05-16T09:39:55.387Z,24.68
2018-05-16T09:42:23.790Z,24.77
2018-05-16T09:44:52.961Z,25.03
2018-05-16T09:47:21.337Z,24.85
2018-05-16T09:49:49.723Z,26.07
2018-05-16T09:52:18.105Z,25.19
2018-05-16T09:54:46.503Z,24.26
2018-05-16T09:57:15.649Z,23.90
2018-05-16T09:59:44.024Z,24.44
2018-05-16T10:02:12.437Z,24.61
2018-05-16T10:04:41.753Z,24.74
2018-05-16T10:07:10.169Z,25.42
2018-05-16T10:09:39.369Z,25.52
2018-05-16T10:12:07.710Z,24.53
2018-05-16T10:14:36.077Z,24.33
2018-05-16T10:17:04.476Z,24.94
2018-05-16T10:19:33.030Z,24.78
2018-05-16T10:22:01.442Z,25.25
2018-05-16T10:24:29.829Z,24.23
2018-05-16T10:26:58.201Z,22.86
2018-05-16T10:29:26.637Z,22.59
2018-05-16T10:31:55.771Z,22.17
2018-05-16T10:34:24.212Z,21.89
2018-05-16T10:36:52.522Z,21.86
2018-05-16T10:39:20.901Z,21.73
2018-05-16T10:41:50.110Z,22.38
2018-05-16T10:44:18.482Z,23.00
2018-05-16T10:46:46.945Z,23.46
2018-05-16T10:49:16.090Z,23.05
2018-05-16T10:51:44.487Z,22.84
2018-05-16T10:54:12.962Z,22.23
2018-05-16T10:56:41.373Z,21.64
2018-05-16T10:59:09.773Z,21.33
2018-05-16T11:01:38.220Z,21.14
2018-05-16T11:04:06.613Z,21.57
2018-05-16T11:06:35.020Z,21.98
2018-05-16T11:09:03.381Z,22.22
2018-05-16T11:11:31.747Z,22.39
2018-05-16T11:14:00.129Z,21.97
2018-05-16T11:16:28.509Z,22.02
2018-05-16T11:18:56.902Z,22.26
2018-05-16T11:21:25.354Z,22.29
2018-05-16T11:23:53.677Z,22.34
2018-05-16T11:26:22.059Z,22.62
2018-05-16T11:28:50.433Z,23.26
2018-05-16T11:31:18.906Z,23.59
2018-05-16T11:33:47.336Z,23.74
2018-05-16T11:36:15.718Z,24.75
2018-05-16T11:38:44.110Z,24.97
2018-05-16T11:41:12.545Z,24.59
2018-05-16T11:43:41.038Z,23.37
2018-05-16T11:46:09.447Z,22.80
2018-05-16T11:48:37.874Z,22.81
2018-05-16T11:51:07.043Z,22.64
2018-05-16T11:53:35.535Z,22.87
2018-05-16T11:56:03.946Z,23.76
2018-05-16T11:58:33.105Z,24.11
2018-05-16T12:01:01.538Z,24.54
2018-05-16T12:03:29.918Z,24.79
2018-05-16T12:05:59.089Z,24.92
2018-05-16T12:08:27.501Z,25.30
2018-05-16T12:10:56.649Z,25.65
2018-05-16T12:13:25.128Z,25.65
2018-05-16T12:15:53.645Z,25.39
2018-05-16T12:18:22.053Z,25.65
2018-05-16T12:20:50.457Z,25.11
2018-05-16T12:23:19.603Z,25.83
2018-05-16T12:25:47.993Z,25.73
2018-05-16T12:28:16.404Z,24.73
2018-05-16T12:30:45.563Z,24.27
2018-05-16T12:33:13.954Z,23.49
2018-05-16T12:35:42.639Z,23.32
2018-05-16T12:38:11.123Z,23.99
2018-05-16T12:40:39.506Z,23.18
2018-05-16T12:43:17.785Z,23.20
2018-05-16T12:45:46.174Z,23.74
2018-05-16T12:48:14.769Z,23.80
2018-05-16T12:50:43.182Z,23.06
2018-05-16T12:53:11.561Z,23.37
2018-05-16T12:55:40.130Z,23.10
2018-05-16T12:58:08.521Z,23.75
2018-05-16T13:00:36.899Z,23.55
2018-05-16T13:03:05.450Z,23.42
2018-05-16T13:05:33.835Z,22.76
2018-05-16T13:08:02.233Z,22.45
2018-05-16T13:10:30.621Z,21.44
2018-05-16T13:12:59.094Z,20.23
2018-05-16T13:15:27.434Z,19.24
2018-05-16T13:17:55.813Z,18.83
2018-05-16T13:20:24.177Z,18.57
2018-05-16T13:22:52.622Z,18.59
2018-05-16T13:25:21.010Z,18.70
2018-05-16T13:27:49.394Z,18.72
2018-05-16T13:30:17.787Z,18.82
2018-05-16T13:32:46.153Z,18.75
2018-05-16T13:35:14.550Z,18.40
2018-05-16T13:37:42.939Z,18.25
2018-05-16T13:40:11.418Z,18.24
2018-05-16T13:42:39.807Z,18.20
2018-05-16T13:45:08.197Z,18.13
2018-05-16T13:47:36.615Z,18.08
2018-05-16T13:50:05.733Z,17.93
2018-05-16T13:52:34.895Z,17.91
2018-05-16T13:55:03.278Z,17.75
2018-05-16T13:57:31.678Z,17.83
2018-05-16T14:00:00.182Z,17.93
2018-05-16T14:02:29.501Z,18.28
2018-05-16T14:04:58.277Z,18.46
2018-05-16T14:07:27.416Z,18.53
2018-05-16T14:09:55.797Z,18.62
2018-05-16T14:12:24.293Z,18.76
2018-05-16T14:14:52.701Z,18.79
2018-05-16T14:17:21.109Z,18.80
2018-05-16T14:19:50.282Z,18.81
2018-05-16T14:22:18.696Z,18.85
2018-05-16T14:24:47.846Z,18.93
2018-05-16T14:27:16.246Z,19.11
2018-05-16T14:29:44.627Z,19.13
2018-05-16T14:32:13.059Z,18.99
2018-05-16T14:34:42.202Z,19.33
2018-05-16T14:37:10.709Z,19.43
2018-05-16T14:39:39.087Z,19.64
2018-05-16T14:42:07.466Z,19.53
2018-05-16T14:44:35.859Z,19.76
2018-05-16T14:47:04.258Z,20.08
2018-05-16T14:49:32.649Z,20.96
2018-05-16T14:52:01.822Z,21.86
2018-05-16T14:54:30.218Z,21.87
2018-05-16T14:56:58.647Z,21.94
2018-05-16T14:59:27.058Z,21.98
2018-05-16T15:01:55.458Z,21.58
2018-05-16T15:04:23.861Z,21.64
2018-05-16T15:06:52.266Z,21.62
2018-05-16T15:09:20.666Z,21.78
2018-05-16T15:11:49.099Z,22.03
2018-05-16T15:14:17.455Z,22.03
2018-05-16T15:16:45.833Z,23.38
2018-05-16T15:19:14.235Z,24.19
2018-05-16T15:21:42.757Z,24.59
2018-05-16T15:24:11.892Z,24.73
2018-05-16T15:26:40.297Z,23.20
2018-05-16T15:29:08.676Z,22.84
2018-05-16T15:31:37.038Z,22.57
2018-05-16T15:34:05.503Z,22.65
2018-05-16T15:36:34.668Z,22.08
2018-05-16T15:39:03.190Z,21.24
2018-05-16T15:41:32.355Z,21.21
2018-05-16T15:44:00.734Z,21.45
2018-05-16T15:46:29.198Z,21.62
2018-05-16T15:48:57.582Z,21.63
2018-05-16T15:51:26.034Z,21.59
2018-05-16T15:53:54.414Z,20.87
2018-05-16T15:56:22.801Z,20.52
2018-05-16T15:58:51.181Z,20.56
2018-05-16T16:01:19.651Z,20.96
2018-05-16T16:03:48.891Z,20.86
2018-05-16T16:06:17.273Z,20.62
2018-05-16T16:08:45.675Z,20.63
2018-05-16T16:11:14.054Z,20.57
2018-05-16T16:13:42.462Z,20.54
2018-05-16T16:16:11.645Z,20.38
2018-05-16T16:18:40.021Z,20.19
2018-05-16T16:21:08.449Z,19.99
2018-05-16T16:23:36.856Z,20.00
2018-05-16T16:26:05.329Z,20.14
2018-05-16T16:28:34.533Z,19.95
2018-05-16T16:31:03.862Z,20.27
2018-05-16T16:33:32.341Z,20.28
2018-05-16T16:36:00.742Z,20.30
2018-05-16T16:38:29.151Z,20.48
2018-05-16T16:40:57.522Z,20.63
2018-05-16T16:43:25.974Z,20.45
2018-05-16T16:45:54.374Z,20.31
2018-05-16T16:48:22.753Z,20.21
2018-05-16T16:50:51.151Z,20.21
2018-05-16T16:53:19.541Z,20.10
2018-05-16T16:55:47.950Z,20.03
2018-05-16T16:58:16.353Z,20.13
2018-05-16T17:00:44.950Z,19.62
2018-05-16T17:03:13.342Z,19.45
2018-05-16T17:05:41.773Z,19.04
2018-05-16T17:08:10.207Z,18.82
2018-05-16T17:10:39.526Z,18.72
2018-05-16T17:13:07.986Z,18.80
2018-05-16T17:15:37.172Z,18.57
2018-05-16T17:18:06.322Z,17.87
2018-05-16T17:20:34.722Z,16.83
2018-05-16T17:23:03.182Z,15.86
2018-05-16T17:25:31.579Z,15.33
2018-05-16T17:28:00.032Z,15.17
2018-05-16T17:30:28.648Z,15.04
2018-05-16T17:32:57.020Z,15.12
2018-05-16T17:35:25.450Z,15.13
2018-05-16T17:37:53.872Z,15.11
2018-05-16T17:40:22.284Z,15.09
2018-05-16T17:42:50.739Z,14.86
2018-05-16T17:45:19.969Z,14.54
2018-05-16T17:47:48.366Z,14.30
2018-05-16T17:50:16.811Z,14.27
2018-05-16T17:52:45.194Z,14.27
2018-05-16T17:55:13.591Z,14.28
2018-05-16T17:57:41.999Z,14.01
2018-05-16T18:00:10.421Z,14.09
2018-05-16T18:02:38.853Z,14.33
2018-05-16T18:05:07.252Z,14.22
2018-05-16T18:07:36.396Z,14.10
2018-05-16T18:10:05.561Z,14.10
2018-05-16T18:12:33.947Z,14.12
2018-05-16T18:15:25.880Z,14.07
2018-05-16T18:17:54.373Z,13.98
2018-05-16T18:20:22.766Z,14.00
2018-05-16T18:22:51.934Z,14.12
2018-05-16T18:25:20.341Z,14.14
2018-05-16T18:27:49.511Z,14.13
2018-05-16T18:30:18.693Z,14.19
2018-05-16T18:32:47.103Z,14.36
2018-05-16T18:35:15.539Z,14.30
2018-05-16T18:37:43.953Z,14.27
2018-05-16T18:40:12.357Z,14.28
2018-05-16T18:42:40.784Z,14.20
2018-05-16T18:45:09.169Z,14.25
2018-05-16T18:47:38.372Z,14.18
2018-05-16T18:50:06.801Z,14.28
2018-05-16T18:52:35.213Z,14.22
2018-05-16T18:55:03.607Z,14.19
2018-05-16T18:57:32.003Z,14.31
2018-05-16T19:00:00.486Z,14.36
2018-05-16T19:02:28.949Z,14.39
2018-05-16T19:04:57.375Z,14.44
2018-05-16T19:07:25.830Z,14.42
2018-05-16T19:09:55.008Z,14.26
2018-05-16T19:12:23.419Z,14.17
2018-05-16T19:14:52.591Z,14.22
2018-05-16T19:17:21.042Z,14.31
2018-05-16T19:19:49.483Z,14.37
2018-05-16T19:22:17.903Z,14.33
2018-05-16T19:24:46.322Z,14.32
2018-05-16T19:27:14.766Z,14.34
2018-05-16T19:32:25.162Z,14.39
2018-05-16T19:34:54.405Z,14.46
2018-05-16T19:37:24.708Z,14.45
2018-05-16T19:39:53.991Z,14.38
2018-05-16T19:42:24.140Z,14.33
2018-05-16T19:44:55.869Z,14.34
2018-05-16T19:47:24.759Z,14.31
2018-05-16T19:49:53.158Z,14.30
2018-05-16T19:52:21.640Z,14.39
2018-05-16T19:54:51.211Z,14.44
2018-05-16T19:57:20.446Z,14.41
2018-05-16T19:59:48.879Z,14.61
2018-05-16T20:02:18.064Z,14.72
2018-05-16T20:04:46.494Z,14.69
2018-05-16T20:07:17.678Z,14.64
2018-05-16T20:09:46.103Z,14.66
2018-05-16T20:12:15.256Z,14.64
2018-05-16T20:14:43.755Z,14.60
2018-05-16T20:17:12.177Z,14.44
2018-05-16T20:19:41.470Z,14.37
2018-05-16T20:22:09.906Z,14.35
2018-05-16T20:24:38.327Z,14.29
2018-05-16T20:27:06.728Z,14.30
2018-05-16T20:29:35.158Z,14.22
2018-05-16T20:32:03.722Z,14.14
2018-05-16T20:34:32.149Z,14.05
2018-05-16T20:37:01.320Z,14.03
2018-05-16T20:39:29.710Z,14.11
2018-05-16T20:41:58.085Z,14.23
2018-05-16T20:44:26.491Z,14.21
2018-05-16T20:46:54.895Z,14.32
2018-05-16T20:49:23.334Z,14.28
2018-05-16T20:51:51.838Z,14.44
2018-05-16T20:54:20.253Z,14.36
2018-05-16T20:56:48.652Z,14.31
2018-05-16T20:59:17.046Z,14.45
2018-05-16T21:01:46.255Z,14.37
2018-05-16T21:04:15.410Z,14.12
2018-05-16T21:06:43.831Z,14.11
2018-05-16T21:09:12.985Z,14.08
2018-05-16T21:11:41.513Z,14.11
2018-05-16T21:14:10.697Z,14.23
2018-05-16T21:16:39.155Z,14.28
2018-05-16T21:19:07.542Z,14.34
2018-05-16T21:24:05.322Z,14.21
2018-05-16T21:26:33.710Z,14.14
2018-05-16T21:29:02.116Z,14.06
2018-05-16T21:31:30.512Z,14.26
2018-05-16T21:33:59.668Z,14.00
2018-05-16T21:36:28.067Z,13.91
2018-05-16T21:38:57.232Z,13.97
2018-05-16T21:41:25.647Z,14.06
2018-05-16T21:43:54.030Z,13.85
2018-05-16T21:46:22.445Z,13.73
2018-05-16T21:48:50.847Z,13.69
2018-05-16T21:51:20.006Z,13.66
2018-05-16T21:53:49.154Z,13.49
2018-05-16T21:56:18.483Z,13.54
2018-05-16T21:58:46.888Z,13.72
2018-05-16T22:01:16.088Z,13.71
2018-05-16T22:03:44.505Z,13.79
2018-05-16T22:06:12.894Z,13.62
2018-05-16T22:08:42.087Z,13.63
2018-05-16T22:11:10.499Z,13.57
2018-05-16T22:13:38.885Z,13.62
2018-05-16T22:16:07.279Z,13.18
2018-05-16T22:18:35.658Z,13.26
2018-05-16T22:21:04.082Z,13.28
2018-05-16T22:23:33.343Z,13.26
2018-05-16T22:26:01.733Z,13.13
2018-05-16T22:28:30.133Z,13.18
2018-05-16T22:31:03.984Z,13.16
2018-05-16T22:33:37.689Z,12.92
2018-05-16T22:36:11.638Z,12.74
2018-05-16T22:38:45.622Z,12.63
2018-05-16T22:41:20.206Z,12.67
2018-05-16T22:46:58.281Z,12.61
2018-05-16T22:49:26.678Z,12.43
2018-05-16T22:51:55.051Z,12.33
2018-05-16T22:54:23.443Z,12.35
2018-05-16T22:56:51.891Z,12.23
2018-05-16T22:59:21.111Z,12.11
2018-05-16T23:01:49.536Z,12.01
2018-05-16T23:04:17.933Z,11.91
2018-05-16T23:06:46.349Z,12.01
2018-05-16T23:09:15.564Z,12.12
2018-05-16T23:11:43.956Z,12.12
2018-05-16T23:14:12.341Z,12.24
2018-05-16T23:16:40.727Z,12.27
2018-05-16T23:19:09.153Z,12.16
2018-05-16T23:21:37.538Z,11.99
2018-05-16T23:24:05.922Z,11.93
2018-05-16T23:26:34.298Z,11.92
2018-05-16T23:29:02.796Z,11.98
2018-05-16T23:31:31.186Z,12.09
2018-05-16T23:34:00.365Z,12.15
2018-05-16T23:36:28.806Z,12.14
2018-05-16T23:38:57.197Z,12.16
2018-05-16T23:41:25.593Z,12.24
2018-05-16T23:43:53.990Z,12.09
2018-05-16T23:46:22.447Z,12.06
2018-05-16T23:48:50.920Z,12.07
2018-05-16T23:51:19.355Z,11.84
2018-05-16T23:53:47.754Z,11.79
2018-05-16T23:56:16.261Z,11.74
2018-05-16T23:58:45.507Z,11.95
